• Join FlightAware (Why Join?)
  • Login
  • US Flag 
 
06:12AM EST


 

Airport Tracker/Info


-or-


 

Live Flight TrackerFlight Track Log ✈ FLG4262 ✈ 18-Nov-2013 ✈ KDTW - KBGM

Flight Track Log - Related Links

Times and Time Zones

All times are in EST time to prevent confusion due to time zone crossing. See the FLG4262 flight status page for this flight to view local times or setup timezone preferences in your user account.

Time Position Orientation Groundspeed Altitude Reporting Facility
EST Latitude Longitude Course Direction KTS MPH feet Rate Location/Type
03:58PM 42.2050 -83.3528 169° South 159 183 1,300  Level Cleveland Center
03:59PM 42.1372 -83.3350 169° South 226 260 4,700 2,460 Climbing Cleveland Center
04:00PM 42.1294 -83.3325 167° South 217 250 5,100 2,400 Climbing Cleveland Center
04:01PM 42.0689 -83.2719 143° Southeast 290 334 7,400 2,100 Climbing Cleveland Center
04:01PM 42.0686 -83.2703 103° East 270 311 7,300 1,860 Descending Cleveland Center
04:02PM 42.0786 -83.1619 83° East 303 349 9,600 1,980 Climbing Cleveland Center
04:03PM 42.1242 -83.0644 58° Northeast 310 357 11,500 1,620 Climbing Cleveland Center
04:04PM 42.1692 -82.9542 61° Northeast 337 388 13,000 1,740 Climbing Cleveland Center
04:05PM 42.2275 -82.8078 62° Northeast 370 426 15,100 1,860 Climbing Cleveland Center
04:06PM 42.2783 -82.6794 62° Northeast 386 444 16,900 1,560 Climbing Cleveland Center
04:07PM 42.3303 -82.5486 62° Northeast 393 452 18,400 1,080 Climbing Cleveland Center
04:08PM 42.3656 -82.3936 73° East 444 511 19,200 780 Climbing Cleveland Center
04:09PM 42.3589 -82.2131 93° East 478 550 20,100 960 Climbing Cleveland Center
04:10PM 42.3500 -82.0194 93° East 484 557 21,200 960 Climbing Cleveland Center
04:11PM 42.3425 -81.8303 93° East 495 570 22,200 1,020 Climbing Cleveland Center
04:12PM 42.3322 -81.6108 94° East 497 572 23,400 1,020 Climbing Cleveland Center
04:13PM 42.3233 -81.4208 94° East 499 574 24,400 900 Climbing Cleveland Center
04:14PM 42.3131 -81.2314 94° East 500 575 25,300 720 Climbing Cleveland Center
04:15PM 42.3028 -81.0394 94° East 504 580 26,000 660 Climbing Cleveland Center
04:16PM 42.2942 -80.8478 93° East 507 583 26,700 480 Climbing Cleveland Center
04:17PM 42.2844 -80.6547 94° East 508 585 27,000 120 Climbing Cleveland Center
04:18PM 42.2728 -80.4589 95° East 515 593 27,000  Level Cleveland Center
04:19PM 42.2614 -80.2581 94° East 527 606 27,000  Level Cleveland Center
04:20PM 42.2481 -80.0244 94° East 531 611 27,000  Level Cleveland Center
04:21PM 42.2356 -79.8408 95° East 530 610 27,000  Level Cleveland Center
04:22PM 42.2233 -79.6417 95° East 535 616 27,000  Level Cleveland Center
04:23PM 42.2072 -79.4025 95° East 537 618 27,000  Level Cleveland Center
04:25PM 42.1939 -79.2053 95° East 531 611 27,000  Level Cleveland Center
04:26PM 42.1903 -79.0047 91° East 535 616 27,000  Level Cleveland Center
04:27PM 42.1944 -78.7969 88° East 532 612 27,000  Level Cleveland Center
04:28PM 42.1975 -78.5983 89° East 532 612 27,000 -300 Level Cleveland Center
04:29PM 42.2003 -78.4000 89° East 533 613 26,400 -780 Descending Cleveland Center
04:30PM 42.2031 -78.2061 89° East 524 603 25,400 -1,080 Descending Cleveland Center
04:31PM 42.2050 -77.9794 89° East 512 589 24,200 -1,080 Descending Cleveland Center
04:32PM 42.2069 -77.7931 89° East 505 581 23,200 -1,020 Descending Cleveland Center
04:33PM 42.2083 -77.6094 89° East 499 574 22,200 -1,140 Descending Cleveland Center
04:34PM 42.2094 -77.4261 89° East 497 572 20,900 -1,920 Descending Cleveland Center
04:35PM 42.2111 -77.2072 89° East 493 567 18,300 -1,860 Descending Cleveland Center
04:36PM 42.2108 -77.0353 90° East 473 544 17,100 -600 Descending Cleveland Center
04:37PM 42.2117 -76.8711 90° East 450 518 17,100 -1,020 Level Cleveland Center
04:38PM 42.2108 -76.7178 90° East 424 488 15,000 -2,100 Descending Cleveland Center
04:39PM 42.2089 -76.5700 91° East 404 465 12,800 -1,920 Descending Cleveland Center
04:40PM 42.1978 -76.4389 96° East 361 415 11,100 -2,100 Descending Cleveland Center
04:41PM 42.1786 -76.3256 103° East 342 394 8,700 -2,220 Descending New York Center
04:42PM 42.1625 -76.2261 102° East 306 352 6,900 -1,380 Descending New York Center
04:43PM 42.1478 -76.1383 103° East 265 305 6,000 -1,320 Descending New York Center
04:44PM 42.1325 -76.0617 105° East 230 265 4,300 -1,500 Descending New York Center
04:45PM 42.1231 -75.9881 100° East 211 243 3,100 -900 Descending New York Center
04:46PM 42.1547 -75.9347 51° Northeast 178 205 2,600 -600 Descending New York Center
04:47PM 42.1869 -75.9567 333° Northwest 99 114 1,900 -720 Descending New York Center